createdAt,value
2023-04-20T00:00:12.779Z,29.9767
2023-04-20T00:01:16.656Z,29.9708
2023-04-20T00:02:20.637Z,29.9908
2023-04-20T00:03:24.952Z,29.9883
2023-04-20T00:04:28.934Z,29.9717
2023-04-20T00:05:33.091Z,29.9500
2023-04-20T00:06:37.005Z,29.9525
2023-04-20T00:07:40.913Z,29.9717
2023-04-20T00:08:44.874Z,29.9708
2023-04-20T00:09:48.719Z,29.9633
2023-04-20T00:10:52.612Z,29.9608
2023-04-20T00:11:56.530Z,29.9675
2023-04-20T00:13:00.405Z,29.9817
2023-04-20T00:14:04.297Z,29.9733
2023-04-20T00:15:08.179Z,29.9767
2023-04-20T00:16:12.090Z,29.9950
2023-04-20T00:17:15.975Z,29.9875
2023-04-20T00:18:19.910Z,29.9933
2023-04-20T00:19:23.795Z,30.0075
2023-04-20T00:20:27.719Z,29.9883
2023-04-20T00:21:31.583Z,29.9925
2023-04-20T00:22:35.488Z,29.9825
2023-04-20T00:23:39.413Z,29.9608
2023-04-20T00:24:43.325Z,29.9708
2023-04-20T00:25:47.532Z,29.9817
2023-04-20T00:26:51.444Z,29.9600
2023-04-20T00:27:55.554Z,29.9425
2023-04-20T00:28:59.463Z,29.9633
2023-04-20T00:30:03.338Z,29.9967
2023-04-20T00:31:07.292Z,30.0233
2023-04-20T00:32:11.153Z,29.9942
2023-04-20T00:33:15.056Z,29.9800
2023-04-20T00:34:18.956Z,29.9717
2023-04-20T00:35:23.104Z,29.9717
2023-04-20T00:36:27.013Z,29.9983
2023-04-20T00:37:30.884Z,30.0067
2023-04-20T00:38:35.106Z,29.9742
2023-04-20T00:39:38.997Z,29.9675
2023-04-20T00:40:42.909Z,29.9575
2023-04-20T00:41:46.782Z,29.9975
2023-04-20T00:42:50.686Z,30.0108
2023-04-20T00:43:54.835Z,29.9958
2023-04-20T00:44:58.715Z,29.9817
2023-04-20T00:46:02.882Z,29.9683
2023-04-20T00:47:06.743Z,29.9775
2023-04-20T00:48:10.646Z,29.9692
2023-04-20T00:49:14.551Z,29.9617
2023-04-20T00:50:18.473Z,29.9583
2023-04-20T00:51:22.358Z,29.9775
2023-04-20T00:52:26.248Z,29.9833
2023-04-20T00:53:30.149Z,29.9558
2023-04-20T00:54:34.055Z,29.9900
2023-04-20T00:55:38.008Z,29.9808
2023-04-20T00:56:41.910Z,29.9533
2023-04-20T00:57:45.789Z,29.9383
2023-04-20T00:58:49.688Z,29.9367
2023-04-20T00:59:53.613Z,29.9817
2023-04-20T01:00:57.495Z,30.0000
2023-04-20T01:02:01.439Z,30.0058
2023-04-20T01:03:05.492Z,29.9800
2023-04-20T01:04:09.544Z,29.9675
2023-04-20T01:05:13.460Z,29.9425
2023-04-20T01:06:17.375Z,29.9283
2023-04-20T01:07:21.245Z,29.9358
2023-04-20T01:08:25.143Z,29.9542
2023-04-20T01:09:29.017Z,29.9608
2023-04-20T01:10:32.931Z,29.9575
2023-04-20T01:11:36.827Z,29.9617
2023-04-20T01:12:40.708Z,29.9642
2023-04-20T01:13:44.615Z,29.9633
2023-04-20T01:14:48.499Z,29.9483
2023-04-20T01:15:52.413Z,29.9058
2023-04-20T01:16:56.288Z,29.9167
2023-04-20T01:18:00.352Z,29.9217
2023-04-20T01:19:04.212Z,29.9242
2023-04-20T01:20:08.099Z,29.9283
2023-04-20T01:21:12.002Z,29.9300
2023-04-20T01:22:15.901Z,29.9317
2023-04-20T01:23:19.795Z,29.9317
2023-04-20T01:24:23.677Z,29.9567
2023-04-20T01:25:27.570Z,29.9408
2023-04-20T01:26:31.466Z,29.9542
2023-04-20T01:27:35.364Z,29.9592
2023-04-20T01:28:39.251Z,29.9658
2023-04-20T01:29:43.149Z,29.9625
2023-04-20T01:30:47.029Z,29.9475
2023-04-20T01:31:51.021Z,29.9675
2023-04-20T01:32:54.948Z,29.9700
2023-04-20T01:33:58.884Z,29.9675
2023-04-20T01:35:02.750Z,29.9800
2023-04-20T01:36:06.661Z,29.9942
2023-04-20T01:37:10.562Z,29.9758
2023-04-20T01:38:14.676Z,29.9650
2023-04-20T01:39:18.735Z,29.9675
2023-04-20T01:40:22.915Z,29.9483
2023-04-20T01:41:26.800Z,29.9275
2023-04-20T01:42:30.684Z,29.9233
2023-04-20T01:43:34.842Z,29.9117
2023-04-20T01:44:38.730Z,29.8967
2023-04-20T01:45:42.641Z,29.9033
2023-04-20T01:46:46.535Z,29.9158
2023-04-20T01:47:50.538Z,29.9458
2023-04-20T01:48:54.383Z,29.9558
2023-04-20T01:49:58.280Z,29.9358
2023-04-20T01:51:02.164Z,29.9367
2023-04-20T01:52:06.062Z,29.9492
2023-04-20T01:53:10.273Z,29.9592
2023-04-20T01:54:14.155Z,29.9500
2023-04-20T01:55:20.036Z,29.9317
2023-04-20T01:56:19.027Z,29.9418
2023-04-20T01:57:22.932Z,29.9492
2023-04-20T01:58:27.066Z,29.9283
2023-04-20T01:59:30.972Z,29.9283
2023-04-20T02:00:34.879Z,29.9367
2023-04-20T02:01:38.752Z,29.9208
2023-04-20T02:02:42.736Z,29.9250
2023-04-20T02:03:47.205Z,29.9192
2023-04-20T02:04:51.199Z,29.8892
2023-04-20T02:05:56.438Z,29.8943
2023-04-20T02:07:00.357Z,29.8942
2023-04-20T02:08:04.215Z,29.8925
2023-04-20T02:09:08.128Z,29.8808
2023-04-20T02:10:12.021Z,29.8875
2023-04-20T02:11:12.350Z,29.8730
2023-04-20T02:12:16.244Z,29.8467
2023-04-20T02:13:20.151Z,29.8583
2023-04-20T02:14:24.034Z,29.8642
2023-04-20T02:15:27.934Z,29.8783
2023-04-20T02:16:31.842Z,29.9158
2023-04-20T02:17:35.794Z,29.9075
2023-04-20T02:18:39.655Z,29.9050
2023-04-20T02:19:43.553Z,29.9058
2023-04-20T02:20:47.614Z,29.9075
2023-04-20T02:21:51.572Z,29.8867
2023-04-20T02:22:55.468Z,29.8725
2023-04-20T02:23:59.333Z,29.8858
2023-04-20T02:25:03.213Z,29.8875
2023-04-20T02:26:07.101Z,29.8908
2023-04-20T02:27:11.026Z,29.8917
2023-04-20T02:28:14.907Z,29.8958
2023-04-20T02:29:18.968Z,29.8867
2023-04-20T02:30:23.282Z,29.9033
2023-04-20T02:31:27.200Z,29.8992
2023-04-20T02:32:31.077Z,29.8758
2023-04-20T02:33:35.175Z,29.8967
2023-04-20T02:34:39.058Z,29.9050
2023-04-20T02:35:42.973Z,29.9125
2023-04-20T02:36:46.857Z,29.8958
2023-04-20T02:37:50.745Z,29.8933
2023-04-20T02:38:54.621Z,29.8883
2023-04-20T02:39:58.497Z,29.8858
2023-04-20T02:41:02.734Z,29.8767
2023-04-20T02:42:06.631Z,29.8758
2023-04-20T02:43:10.542Z,29.8642
2023-04-20T02:44:14.432Z,29.8608
2023-04-20T02:45:18.326Z,29.8758
2023-04-20T02:46:22.232Z,29.8717
2023-04-20T02:47:26.153Z,29.8533
2023-04-20T02:48:29.994Z,29.8625
2023-04-20T02:49:33.905Z,29.8533
2023-04-20T02:50:37.794Z,29.8592
2023-04-20T02:51:41.685Z,29.8508
2023-04-20T02:52:45.590Z,29.8308
2023-04-20T02:53:49.809Z,29.8483
2023-04-20T02:54:53.720Z,29.8808
2023-04-20T02:55:57.833Z,29.8883
2023-04-20T02:57:01.731Z,29.8717
2023-04-20T02:58:05.624Z,29.8425
2023-04-20T02:59:09.521Z,29.8417
2023-04-20T03:00:13.450Z,29.8442
2023-04-20T03:01:17.331Z,29.8367
2023-04-20T03:02:21.467Z,29.8367
2023-04-20T03:03:25.512Z,29.8308
2023-04-20T03:04:29.553Z,29.8317
2023-04-20T03:05:33.430Z,29.8167
2023-04-20T03:06:38.843Z,29.7992
2023-04-20T03:07:37.521Z,29.7964
2023-04-20T03:08:41.423Z,29.8017
2023-04-20T03:09:45.305Z,29.8108
2023-04-20T03:10:49.457Z,29.8117
2023-04-20T03:11:53.344Z,29.8092
2023-04-20T03:12:57.334Z,29.8117
2023-04-20T03:14:01.213Z,29.8075
2023-04-20T03:15:05.110Z,29.8058
2023-04-20T03:16:09.051Z,29.7717
2023-04-20T03:17:12.949Z,29.7333
2023-04-20T03:18:16.855Z,29.7442
2023-04-20T03:19:20.753Z,29.7833
2023-04-20T03:20:24.646Z,29.7917
2023-04-20T03:21:28.551Z,29.7758
2023-04-20T03:22:32.444Z,29.7908
2023-04-20T03:23:36.321Z,29.8158
2023-04-20T03:24:40.226Z,29.8375
2023-04-20T03:25:44.108Z,29.8925
2023-04-20T03:26:48.018Z,29.9383
2023-04-20T03:27:51.904Z,29.9633
2023-04-20T03:28:55.809Z,29.9883
2023-04-20T03:29:59.695Z,30.0175
2023-04-20T03:31:03.927Z,30.0475
2023-04-20T03:32:07.912Z,30.0517
2023-04-20T03:33:11.863Z,30.0500
2023-04-20T03:34:15.794Z,30.0475
2023-04-20T03:35:19.693Z,30.0508
2023-04-20T03:36:23.589Z,29.9867
2023-04-20T03:37:27.505Z,29.9717
2023-04-20T03:38:31.409Z,30.0017
2023-04-20T03:39:35.297Z,30.0083
2023-04-20T03:40:39.207Z,30.0025
2023-04-20T03:41:43.092Z,29.9433
2023-04-20T03:42:47.244Z,29.9150
2023-04-20T03:43:51.118Z,29.9242
2023-04-20T03:44:55.023Z,29.9258
2023-04-20T03:45:58.947Z,29.8942
2023-04-20T03:47:02.843Z,29.8675
2023-04-20T03:48:06.723Z,29.8417
2023-04-20T03:49:10.598Z,29.8142
2023-04-20T03:50:14.699Z,29.7967
2023-04-20T03:51:18.586Z,29.7817
2023-04-20T03:52:22.504Z,29.7925
2023-04-20T03:53:26.401Z,29.8250
2023-04-20T03:54:30.335Z,29.8400
2023-04-20T03:55:34.211Z,29.8250
2023-04-20T03:56:38.123Z,29.7908
2023-04-20T03:57:42.325Z,29.8050
2023-04-20T03:58:46.219Z,29.8250
2023-04-20T03:59:50.096Z,29.8133
2023-04-20T04:00:54.222Z,29.7917
2023-04-20T04:01:58.256Z,29.7717
2023-04-20T04:03:02.348Z,29.7767
2023-04-20T04:04:06.581Z,29.7825
2023-04-20T04:05:10.761Z,29.7650
2023-04-20T04:06:14.646Z,29.7817
2023-04-20T04:07:18.555Z,29.7867
2023-04-20T04:08:22.445Z,29.7592
2023-04-20T04:09:26.322Z,29.7417
2023-04-20T04:10:30.235Z,29.7250
2023-04-20T04:11:34.114Z,29.6958
2023-04-20T04:12:38.022Z,29.6567
2023-04-20T04:13:41.928Z,29.6758
2023-04-20T04:14:45.835Z,29.6450
2023-04-20T04:15:49.734Z,29.5108
2023-04-20T04:16:53.719Z,29.3442
2023-04-20T04:17:57.883Z,29.1467
2023-04-20T04:19:01.778Z,29.0783
2023-04-20T04:20:05.908Z,29.0675
2023-04-20T04:21:09.816Z,28.9275
2023-04-20T04:22:13.704Z,28.8625
2023-04-20T04:23:17.600Z,28.6958
2023-04-20T04:24:21.535Z,28.6125
2023-04-20T04:25:25.456Z,28.5908
2023-04-20T04:26:29.324Z,28.5992
2023-04-20T04:27:33.460Z,28.5917
2023-04-20T04:28:37.374Z,28.5492
2023-04-20T04:29:41.254Z,28.5450
2023-04-20T04:30:45.168Z,28.5242
2023-04-20T04:31:49.123Z,28.5000
2023-04-20T04:32:53.058Z,28.4825
2023-04-20T04:33:56.970Z,28.4992
2023-04-20T04:35:00.863Z,28.5458
2023-04-20T04:36:05.129Z,28.5492
2023-04-20T04:37:09.017Z,28.5350
2023-04-20T04:38:13.174Z,28.5717
2023-04-20T04:39:17.327Z,28.5425
2023-04-20T04:40:21.381Z,28.5425
2023-04-20T04:41:25.293Z,28.5275
2023-04-20T04:42:29.186Z,28.5267
2023-04-20T04:43:33.111Z,28.5717
2023-04-20T04:44:37.049Z,28.5975
2023-04-20T04:45:40.961Z,28.5617
2023-04-20T04:46:44.925Z,28.5600
2023-04-20T04:47:48.868Z,28.5742
2023-04-20T04:48:52.739Z,28.5558
2023-04-20T04:49:56.656Z,28.5258
2023-04-20T04:51:00.587Z,28.5342
2023-04-20T04:52:04.493Z,28.5608
2023-04-20T04:53:08.414Z,28.4983
2023-04-20T04:54:12.309Z,28.4900
2023-04-20T04:55:16.727Z,28.5158
2023-04-20T04:56:20.659Z,28.4975
2023-04-20T04:57:24.875Z,28.5083
2023-04-20T04:58:28.773Z,28.5225
2023-04-20T04:59:32.669Z,28.4825
2023-04-20T05:00:36.561Z,28.4933
2023-04-20T05:01:40.467Z,28.4933
2023-04-20T05:02:44.514Z,28.4875
2023-04-20T05:03:48.494Z,28.5025
2023-04-20T05:04:52.538Z,28.5017
2023-04-20T05:05:56.610Z,28.4658
2023-04-20T05:07:00.487Z,28.4333
2023-04-20T05:08:04.381Z,28.4308
2023-04-20T05:09:08.258Z,28.4442
2023-04-20T05:10:14.035Z,28.5333
2023-04-20T05:11:13.601Z,28.4827
2023-04-20T05:12:17.469Z,28.5308
2023-04-20T05:13:21.379Z,28.5525
2023-04-20T05:14:25.264Z,28.6142
2023-04-20T05:15:29.155Z,28.6183
2023-04-20T05:16:33.099Z,28.5933
2023-04-20T05:17:36.968Z,28.7608
2023-04-20T05:18:40.831Z,28.7500
2023-04-20T05:19:44.707Z,28.7533
2023-04-20T05:20:48.590Z,28.7183
2023-04-20T05:21:52.491Z,28.7617
2023-04-20T05:22:56.636Z,29.0158
2023-04-20T05:24:00.577Z,28.8058
2023-04-20T05:25:04.650Z,28.7350
2023-04-20T05:26:08.533Z,28.7408
2023-04-20T05:27:12.458Z,28.7008
2023-04-20T05:28:16.367Z,28.5142
2023-04-20T05:29:20.251Z,28.4675
2023-04-20T05:30:24.159Z,28.4408
2023-04-20T05:31:28.108Z,28.3958
2023-04-20T05:32:32.248Z,28.3625
2023-04-20T05:33:36.117Z,28.4325
2023-04-20T05:34:40.011Z,28.4500
2023-04-20T05:35:43.929Z,28.5258
2023-04-20T05:36:47.839Z,28.6342
2023-04-20T05:37:51.983Z,28.6525
2023-04-20T05:38:55.897Z,28.6150
2023-04-20T05:39:59.824Z,28.6833
2023-04-20T05:41:03.715Z,28.7250
2023-04-20T05:42:07.612Z,28.6667
2023-04-20T05:43:11.565Z,28.4908
2023-04-20T05:44:15.492Z,28.5133
2023-04-20T05:45:19.408Z,28.4383
2023-04-20T05:46:23.342Z,28.5767
2023-04-20T05:47:27.516Z,28.7758
2023-04-20T05:48:31.393Z,28.5650
2023-04-20T05:49:35.534Z,28.6367
2023-04-20T05:50:39.446Z,28.6642
2023-04-20T05:51:43.375Z,28.9142
2023-04-20T05:52:47.295Z,28.9783
2023-04-20T05:53:51.207Z,28.9417
2023-04-20T05:54:55.347Z,28.8608
2023-04-20T05:55:59.280Z,28.7892
2023-04-20T05:57:03.200Z,28.7767
2023-04-20T05:58:07.370Z,28.7650
2023-04-20T05:59:11.293Z,28.7283
2023-04-20T06:00:15.212Z,28.7033
2023-04-20T06:01:19.106Z,28.4342
2023-04-20T06:02:23.289Z,28.3492
2023-04-20T06:03:27.369Z,28.3092
2023-04-20T06:04:31.605Z,28.2683
2023-04-20T06:05:35.959Z,28.2383
2023-04-20T06:06:39.912Z,28.2425
2023-04-20T06:07:44.084Z,28.2983
2023-04-20T06:08:47.980Z,28.4208
2023-04-20T06:09:51.882Z,28.4467
2023-04-20T06:10:55.782Z,28.3192
2023-04-20T06:11:59.653Z,28.3217
2023-04-20T06:13:03.556Z,28.3642
2023-04-20T06:14:07.422Z,28.3917
2023-04-20T06:15:11.324Z,28.4925
2023-04-20T06:16:15.251Z,28.4617
2023-04-20T06:17:19.111Z,28.4100
2023-04-20T06:18:22.991Z,28.3467
2023-04-20T06:19:26.888Z,28.3192
2023-04-20T06:20:30.806Z,28.3233
2023-04-20T06:21:34.709Z,28.2808
2023-04-20T06:22:35.035Z,28.3455
2023-04-20T06:23:38.928Z,28.3808
2023-04-20T06:24:42.806Z,28.3042
2023-04-20T06:25:46.741Z,28.4175
2023-04-20T06:26:50.602Z,28.5083
2023-04-20T06:27:54.479Z,28.4458
2023-04-20T06:28:58.366Z,28.4167
2023-04-20T06:30:02.267Z,28.4142
2023-04-20T06:31:06.227Z,28.4258
2023-04-20T06:32:10.093Z,28.4392
2023-04-20T06:33:13.997Z,28.4275
2023-04-20T06:34:17.876Z,28.5067
2023-04-20T06:35:21.769Z,28.5150
2023-04-20T06:36:25.672Z,28.4433
2023-04-20T06:37:29.596Z,28.4283
2023-04-20T06:38:33.497Z,28.4325
2023-04-20T06:39:37.385Z,28.4042
2023-04-20T06:40:41.323Z,28.4400
2023-04-20T06:41:45.225Z,28.4183
2023-04-20T06:42:49.361Z,28.4333
2023-04-20T06:43:53.272Z,28.4842
2023-04-20T06:44:57.168Z,28.3925
2023-04-20T06:46:01.070Z,28.3542
2023-04-20T06:47:05.034Z,28.3758
2023-04-20T06:48:20.302Z,28.3817
2023-04-20T06:49:13.461Z,28.3364
2023-04-20T06:50:17.364Z,28.4075
2023-04-20T06:51:21.283Z,28.4575
2023-04-20T06:52:25.179Z,28.3408
2023-04-20T06:53:29.067Z,28.1983
2023-04-20T06:54:32.971Z,28.2575
2023-04-20T06:55:36.861Z,28.2150
2023-04-20T06:56:40.783Z,28.1933
2023-04-20T06:57:44.738Z,28.0767
2023-04-20T06:58:48.843Z,28.0558
2023-04-20T06:59:52.714Z,28.1617
2023-04-20T07:00:56.617Z,28.1958
2023-04-20T07:02:00.598Z,28.1508
2023-04-20T07:03:04.856Z,28.0883
2023-04-20T07:04:08.958Z,28.0433
2023-04-20T07:05:13.155Z,28.1017
2023-04-20T07:06:17.039Z,28.1525
2023-04-20T07:07:20.957Z,28.0292
2023-04-20T07:08:24.922Z,28.0867
2023-04-20T07:09:28.841Z,28.1617
2023-04-20T07:10:32.758Z,28.2067
2023-04-20T07:11:36.652Z,28.1633
2023-04-20T07:12:42.850Z,28.0967
2023-04-20T07:13:42.273Z,28.0900
2023-04-20T07:14:46.150Z,28.1408
2023-04-20T07:15:50.069Z,28.0808
2023-04-20T07:16:54.038Z,28.0317
2023-04-20T07:17:58.102Z,27.8675
2023-04-20T07:19:02.167Z,27.8850
2023-04-20T07:20:06.266Z,27.9567
2023-04-20T07:21:10.180Z,27.9950
2023-04-20T07:22:14.066Z,27.9317
2023-04-20T07:23:17.976Z,27.8992
2023-04-20T07:24:21.857Z,27.9033
2023-04-20T07:25:25.814Z,27.9842
2023-04-20T07:26:29.720Z,27.8175
2023-04-20T07:27:33.921Z,27.7917
2023-04-20T07:28:37.813Z,27.7167
2023-04-20T07:29:41.746Z,27.7367
2023-04-20T07:30:45.885Z,27.8708
2023-04-20T07:31:49.836Z,27.9667
2023-04-20T07:32:53.783Z,27.9567
2023-04-20T07:33:57.740Z,27.9850
2023-04-20T07:35:01.634Z,28.0258
2023-04-20T07:36:05.546Z,28.0133
2023-04-20T07:37:09.464Z,28.0383
2023-04-20T07:38:13.385Z,27.9100
2023-04-20T07:39:17.378Z,27.9392
2023-04-20T07:40:21.502Z,28.0333
2023-04-20T07:41:25.398Z,28.0042
2023-04-20T07:42:29.784Z,28.0642
2023-04-20T07:43:33.760Z,28.0167
2023-04-20T07:44:37.686Z,28.0208
2023-04-20T07:45:41.819Z,28.1600
2023-04-20T07:46:45.759Z,27.9717
2023-04-20T07:47:49.779Z,27.9717
2023-04-20T07:48:54.096Z,28.0567
2023-04-20T07:49:58.019Z,28.0450
2023-04-20T07:51:01.968Z,27.9350
2023-04-20T07:52:15.769Z,27.9817
2023-04-20T07:53:10.353Z,27.9091
2023-04-20T07:54:14.300Z,27.8533
2023-04-20T07:55:18.536Z,27.7308
2023-04-20T07:56:22.447Z,27.6275
2023-04-20T07:57:26.723Z,27.6383
2023-04-20T07:58:30.618Z,27.4675
2023-04-20T07:59:34.548Z,27.5642
2023-04-20T08:00:38.524Z,27.6775
2023-04-20T08:01:42.425Z,27.6850
2023-04-20T08:02:46.486Z,27.7075
2023-04-20T08:03:50.765Z,27.7408
2023-04-20T08:04:54.983Z,27.6908
2023-04-20T08:05:59.126Z,27.5917
2023-04-20T08:07:03.127Z,27.7342
2023-04-20T08:08:07.094Z,27.7283
2023-04-20T08:09:13.282Z,27.6675
2023-04-20T08:10:12.023Z,27.5564
2023-04-20T08:11:15.942Z,27.6383
2023-04-20T08:12:20.118Z,27.7992
2023-04-20T08:13:24.046Z,27.7450
2023-04-20T08:14:28.022Z,27.7208
2023-04-20T08:15:32.075Z,27.7033
2023-04-20T08:16:36.086Z,27.5192
2023-04-20T08:17:40.285Z,27.4758
2023-04-20T08:18:44.179Z,27.5792
2023-04-20T08:19:48.332Z,27.6250
2023-04-20T08:20:52.282Z,27.5033
2023-04-20T08:21:56.184Z,27.5458
2023-04-20T08:23:00.145Z,27.4992
2023-04-20T08:24:04.013Z,27.4233
2023-04-20T08:25:07.937Z,27.2750
2023-04-20T08:26:11.859Z,27.4208
2023-04-20T08:27:15.816Z,27.5800
2023-04-20T08:28:32.411Z,27.8008
2023-04-20T08:29:24.295Z,27.7745
2023-04-20T08:30:24.786Z,27.5964
2023-04-20T08:31:28.909Z,27.7783
2023-04-20T08:32:32.944Z,27.6733
2023-04-20T08:33:36.881Z,27.6508
2023-04-20T08:34:40.831Z,27.5725
2023-04-20T08:35:44.838Z,27.5058
2023-04-20T08:36:48.874Z,27.6217
2023-04-20T08:37:52.798Z,27.6142
2023-04-20T08:38:56.836Z,27.5858
2023-04-20T08:40:01.032Z,27.3425
2023-04-20T08:41:04.952Z,27.2742
2023-04-20T08:42:08.890Z,27.3367
2023-04-20T08:43:12.859Z,27.2600
2023-04-20T08:44:17.038Z,27.2358
2023-04-20T08:45:21.087Z,27.3683
2023-04-20T08:46:25.040Z,27.1658
2023-04-20T08:47:28.967Z,27.2075
2023-04-20T08:48:33.725Z,27.1558
2023-04-20T08:49:38.245Z,27.2367
2023-04-20T08:50:42.162Z,27.3000
2023-04-20T08:51:46.106Z,27.2825
2023-04-20T08:52:50.148Z,27.2508
2023-04-20T08:53:54.043Z,27.1808
2023-04-20T08:54:58.755Z,27.2442
2023-04-20T08:56:02.627Z,27.0942
2023-04-20T08:57:06.550Z,27.1150
2023-04-20T08:58:10.460Z,27.1450
2023-04-20T08:59:14.530Z,27.0875
2023-04-20T09:00:18.697Z,27.0358
2023-04-20T09:01:32.176Z,27.1092
2023-04-20T09:02:27.425Z,27.0573
2023-04-20T09:03:31.706Z,27.0342
2023-04-20T09:04:35.710Z,27.0617
2023-04-20T09:05:39.627Z,27.0758
2023-04-20T09:06:43.518Z,27.0333
2023-04-20T09:07:47.436Z,26.9667
2023-04-20T09:08:51.344Z,27.2092
2023-04-20T09:09:55.287Z,27.0467
2023-04-20T09:10:59.198Z,26.9942
2023-04-20T09:12:03.110Z,27.0392
2023-04-20T09:13:07.019Z,26.9133
2023-04-20T09:14:10.953Z,26.9075
2023-04-20T09:15:15.124Z,26.8317
2023-04-20T09:16:19.096Z,26.7167
2023-04-20T09:17:23.080Z,26.7583
2023-04-20T09:18:26.991Z,26.7867
2023-04-20T09:19:30.939Z,26.8242
2023-04-20T09:20:34.874Z,26.8075
2023-04-20T09:21:38.840Z,26.7192
2023-04-20T09:22:42.866Z,26.7200
2023-04-20T09:23:46.850Z,26.8275
2023-04-20T09:24:50.770Z,26.9508
2023-04-20T09:25:54.710Z,26.9542
2023-04-20T09:26:58.617Z,27.0525
2023-04-20T09:28:02.533Z,27.2017
2023-04-20T09:29:06.450Z,27.2508
2023-04-20T09:30:10.730Z,27.2000
2023-04-20T09:31:15.120Z,27.1842
2023-04-20T09:32:19.114Z,27.3317
2023-04-20T09:33:23.098Z,27.4483
2023-04-20T09:34:27.038Z,27.4142
2023-04-20T09:35:30.900Z,27.3408
2023-04-20T09:36:34.823Z,27.5750
2023-04-20T09:37:38.723Z,27.4408
2023-04-20T09:38:42.616Z,27.4350
2023-04-20T09:39:46.524Z,27.3000
2023-04-20T09:40:50.428Z,27.1042
2023-04-20T09:41:54.295Z,26.8542
2023-04-20T09:42:58.198Z,26.8533
2023-04-20T09:44:02.090Z,26.8842
2023-04-20T09:45:06.107Z,27.0217
2023-04-20T09:46:10.041Z,27.2408
2023-04-20T09:47:14.179Z,27.2042
2023-04-20T09:48:18.089Z,27.1608
2023-04-20T09:49:22.008Z,27.0900
2023-04-20T09:50:35.008Z,27.2000
2023-04-20T09:51:30.390Z,27.1227
2023-04-20T09:52:34.307Z,27.3775
2023-04-20T09:53:38.198Z,27.1933
2023-04-20T09:54:42.096Z,27.1533
2023-04-20T09:55:46.002Z,27.3650
2023-04-20T09:56:49.952Z,27.1033
2023-04-20T09:57:54.036Z,27.1767
2023-04-20T09:58:57.944Z,27.0492
2023-04-20T10:00:01.870Z,27.0092
2023-04-20T10:01:05.782Z,26.9925
2023-04-20T10:02:09.741Z,26.9883
2023-04-20T10:03:13.781Z,27.0067
2023-04-20T10:04:18.087Z,26.9600
2023-04-20T10:05:22.297Z,26.9808
2023-04-20T10:06:26.317Z,27.0342
2023-04-20T10:07:30.425Z,27.0967
2023-04-20T10:08:34.355Z,27.1092
2023-04-20T10:09:38.248Z,27.0733
2023-04-20T10:10:42.193Z,26.9942
2023-04-20T10:11:53.226Z,27.0992
2023-04-20T10:12:50.598Z,26.9536
2023-04-20T10:13:54.480Z,27.0650
2023-04-20T10:14:58.678Z,27.0233
2023-04-20T10:16:02.588Z,27.1975
2023-04-20T10:17:06.659Z,27.0600
2023-04-20T10:18:10.788Z,27.0942
2023-04-20T10:19:14.702Z,26.8933
2023-04-20T10:20:18.628Z,26.7783
2023-04-20T10:21:22.541Z,26.8042
2023-04-20T10:22:26.433Z,26.7417
2023-04-20T10:23:30.318Z,26.8017
2023-04-20T10:24:34.247Z,26.8267
2023-04-20T10:25:38.163Z,26.8858
2023-04-20T10:26:42.039Z,26.8833
2023-04-20T10:27:46.127Z,26.7983
2023-04-20T10:28:50.020Z,26.7767
2023-04-20T10:29:53.930Z,26.8617
2023-04-20T10:30:57.845Z,26.9575
2023-04-20T10:32:01.735Z,27.0317
2023-04-20T10:33:05.653Z,26.8883
2023-04-20T10:34:09.576Z,26.7192
2023-04-20T10:35:13.490Z,26.7883
2023-04-20T10:36:17.409Z,26.9492
2023-04-20T10:37:21.313Z,26.8858
2023-04-20T10:38:25.257Z,26.9842
2023-04-20T10:39:29.106Z,27.0733
2023-04-20T10:40:33.031Z,27.1342
2023-04-20T10:41:36.916Z,27.2808
2023-04-20T10:42:41.087Z,27.2725
2023-04-20T10:43:45.008Z,27.2508
2023-04-20T10:44:48.974Z,27.2925
2023-04-20T10:45:52.953Z,27.5017
2023-04-20T10:46:56.838Z,27.5208
2023-04-20T10:48:00.771Z,27.5133
2023-04-20T10:49:04.686Z,27.4958
2023-04-20T10:50:08.600Z,27.4383
2023-04-20T10:51:12.486Z,27.5533
2023-04-20T10:52:18.022Z,27.6475
2023-04-20T10:53:21.940Z,27.7733
2023-04-20T10:54:25.926Z,27.8117
2023-04-20T10:55:29.860Z,27.8642
2023-04-20T10:56:33.886Z,27.7825
2023-04-20T10:57:38.141Z,27.8792
2023-04-20T10:58:42.054Z,27.8767
2023-04-20T10:59:46.052Z,27.9742
2023-04-20T11:00:49.976Z,28.1092
2023-04-20T11:01:54.071Z,28.1025
2023-04-20T11:02:58.389Z,28.0633
2023-04-20T11:04:02.629Z,28.0367
2023-04-20T11:05:06.754Z,28.2308
2023-04-20T11:06:10.788Z,28.2517
2023-04-20T11:07:14.795Z,28.3117
2023-04-20T11:08:18.705Z,28.3900
2023-04-20T11:09:22.708Z,28.2158
2023-04-20T11:10:26.656Z,28.2367
2023-04-20T11:11:30.644Z,28.3533
2023-04-20T11:12:34.803Z,28.2283
2023-04-20T11:13:38.776Z,28.2642
2023-04-20T11:14:42.867Z,28.3150
2023-04-20T11:15:46.844Z,28.1567
2023-04-20T11:16:52.075Z,28.1950
2023-04-20T11:17:51.270Z,28.2818
2023-04-20T11:18:55.187Z,28.4508
2023-04-20T11:19:59.140Z,28.5975
2023-04-20T11:21:03.067Z,28.5425
2023-04-20T11:22:07.064Z,28.4100
2023-04-20T11:23:11.021Z,28.4308
2023-04-20T11:24:14.958Z,28.4683
2023-04-20T11:25:19.025Z,28.4142
2023-04-20T11:26:23.091Z,28.3742
2023-04-20T11:27:27.090Z,28.3642
2023-04-20T11:28:31.008Z,28.2983
2023-04-20T11:29:34.963Z,28.2783
2023-04-20T11:30:38.887Z,28.4617
2023-04-20T11:31:43.036Z,28.4208
2023-04-20T11:32:47.118Z,28.3150
2023-04-20T11:33:51.129Z,28.2258
2023-04-20T11:35:05.520Z,28.2000
2023-04-20T11:35:59.535Z,28.2573
2023-04-20T11:37:03.752Z,28.3083
2023-04-20T11:38:07.767Z,28.4525
2023-04-20T11:39:11.674Z,28.4125
2023-04-20T11:40:15.587Z,28.2208
2023-04-20T11:41:19.526Z,28.2817
2023-04-20T11:42:23.461Z,28.5758
2023-04-20T11:43:27.386Z,28.1700
2023-04-20T11:44:31.353Z,28.1342
2023-04-20T11:45:36.292Z,27.9750
2023-04-20T11:46:40.537Z,28.1833
2023-04-20T11:47:44.481Z,28.3275
2023-04-20T11:48:48.465Z,28.5308
2023-04-20T11:49:52.531Z,28.3225
2023-04-20T11:50:56.465Z,28.1167
2023-04-20T11:52:00.425Z,27.9525
2023-04-20T11:53:04.410Z,27.9058
2023-04-20T11:54:08.368Z,28.0542
2023-04-20T11:55:12.317Z,28.0233
2023-04-20T11:56:16.216Z,27.9475
2023-04-20T11:57:20.187Z,27.9125
2023-04-20T11:58:24.100Z,27.9050
2023-04-20T11:59:28.016Z,27.8283
2023-04-20T12:00:31.964Z,28.0758
2023-04-20T12:01:35.940Z,28.1008
2023-04-20T12:02:40.235Z,27.9675
2023-04-20T12:03:47.584Z,28.0875
2023-04-20T12:04:46.802Z,28.1527
2023-04-20T12:05:50.858Z,28.0308
2023-04-20T12:06:54.879Z,28.0433
2023-04-20T12:07:58.851Z,27.9608
2023-04-20T12:09:02.785Z,28.0325
2023-04-20T12:10:06.897Z,28.1233
2023-04-20T12:11:10.836Z,28.0633
2023-04-20T12:12:14.779Z,28.1392
2023-04-20T12:13:18.720Z,28.0342
2023-04-20T12:14:22.673Z,27.9633
2023-04-20T12:15:26.621Z,27.9275
2023-04-20T12:16:30.615Z,27.9550
2023-04-20T12:17:34.552Z,27.9700
2023-04-20T12:18:38.444Z,28.0992
2023-04-20T12:19:39.016Z,28.0300
2023-04-20T12:20:42.981Z,28.0333
2023-04-20T12:21:46.898Z,28.0917
2023-04-20T12:22:51.100Z,28.1358
2023-04-20T12:23:55.082Z,28.0125
2023-04-20T12:24:59.080Z,27.9683
2023-04-20T12:26:03.025Z,27.8442
2023-04-20T12:27:06.926Z,27.8400
2023-04-20T12:28:10.843Z,27.9392
2023-04-20T12:29:14.846Z,28.0042
2023-04-20T12:30:18.768Z,27.9858
2023-04-20T12:31:23.958Z,27.9992
2023-04-20T12:32:24.452Z,27.9673
2023-04-20T12:33:28.390Z,27.9467
2023-04-20T12:34:32.347Z,27.9658
2023-04-20T12:35:36.290Z,27.9275
2023-04-20T12:36:40.217Z,27.8742
2023-04-20T12:37:44.160Z,27.8758
2023-04-20T12:38:48.103Z,27.9358
2023-04-20T12:39:52.046Z,27.9375
2023-04-20T12:40:55.934Z,27.9967
2023-04-20T12:41:59.906Z,27.9900
2023-04-20T12:43:03.856Z,27.9350
2023-04-20T12:44:15.696Z,27.9667
2023-04-20T12:45:12.734Z,27.8336
2023-04-20T12:46:16.803Z,27.8850
2023-04-20T12:47:20.891Z,28.0792
2023-04-20T12:48:24.854Z,27.9850
2023-04-20T12:49:29.048Z,27.9758
2023-04-20T12:50:32.978Z,27.8508
2023-04-20T12:51:36.867Z,27.8275
2023-04-20T12:52:41.130Z,27.8900